sensor_id;sensor_type;location;lat;lon;timestamp;pressure;altitude;pressure_sealevel;temperature;humidity
9525;BME280;15940;48.734;9.112;2023-06-22T00:01:25;96603.59;;;19.94;81.31
9525;BME280;15940;48.734;9.112;2023-06-22T00:03:52;96607.44;;;19.91;81.84
9525;BME280;15940;48.734;9.112;2023-06-22T00:06:20;96598.63;;;19.85;81.94
9525;BME280;15940;48.734;9.112;2023-06-22T00:08:47;96594.78;;;19.80;82.36
9525;BME280;15940;48.734;9.112;2023-06-22T00:11:14;96608.34;;;19.78;82.32
9525;BME280;15940;48.734;9.112;2023-06-22T00:13:42;96601.75;;;19.74;82.52
9525;BME280;15940;48.734;9.112;2023-06-22T00:16:09;96610.31;;;19.70;82.79
9525;BME280;15940;48.734;9.112;2023-06-22T00:18:36;96618.94;;;19.66;82.85
9525;BME280;15940;48.734;9.112;2023-06-22T00:21:03;96615.47;;;19.66;83.08
9525;BME280;15940;48.734;9.112;2023-06-22T00:23:33;96612.53;;;19.64;82.79
9525;BME280;15940;48.734;9.112;2023-06-22T00:26:00;96615.09;;;19.62;83.29
9525;BME280;15940;48.734;9.112;2023-06-22T00:28:29;96616.34;;;19.61;83.37
9525;BME280;15940;48.734;9.112;2023-06-22T00:30:56;96618.19;;;19.58;83.43
9525;BME280;15940;48.734;9.112;2023-06-22T00:33:24;96607.94;;;19.59;83.52
9525;BME280;15940;48.734;9.112;2023-06-22T00:35:53;96598.22;;;19.58;83.54
9525;BME280;15940;48.734;9.112;2023-06-22T00:38:20;96602.03;;;19.55;83.70
9525;BME280;15940;48.734;9.112;2023-06-22T00:40:50;96596.16;;;19.51;84.09
9525;BME280;15940;48.734;9.112;2023-06-22T00:43:17;96602.19;;;19.49;84.26
9525;BME280;15940;48.734;9.112;2023-06-22T00:45:44;96604.22;;;19.49;84.26
9525;BME280;15940;48.734;9.112;2023-06-22T00:48:14;96613.00;;;19.47;84.54
9525;BME280;15940;48.734;9.112;2023-06-22T00:50:41;96610.63;;;19.44;84.65
9525;BME280;15940;48.734;9.112;2023-06-22T00:53:09;96609.16;;;19.43;85.08
9525;BME280;15940;48.734;9.112;2023-06-22T00:55:42;96620.88;;;19.43;85.00
9525;BME280;15940;48.734;9.112;2023-06-22T00:58:59;96621.78;;;19.46;85.78
9525;BME280;15940;48.734;9.112;2023-06-22T01:01:29;96625.84;;;19.52;85.27
9525;BME280;15940;48.734;9.112;2023-06-22T01:04:12;96637.03;;;19.54;84.91
9525;BME280;15940;48.734;9.112;2023-06-22T01:06:47;96676.03;;;19.53;85.19
9525;BME280;15940;48.734;9.112;2023-06-22T01:09:33;96663.44;;;19.57;85.08
9525;BME280;15940;48.734;9.112;2023-06-22T01:12:31;96636.69;;;19.58;84.67
9525;BME280;15940;48.734;9.112;2023-06-22T01:15:18;96628.63;;;19.60;84.59
9525;BME280;15940;48.734;9.112;2023-06-22T01:17:48;96633.19;;;19.57;84.69
9525;BME280;15940;48.734;9.112;2023-06-22T01:20:17;96653.16;;;19.58;84.58
9525;BME280;15940;48.734;9.112;2023-06-22T01:23:02;96624.03;;;19.55;84.47
9525;BME280;15940;48.734;9.112;2023-06-22T01:25:38;96609.16;;;19.50;84.75
9525;BME280;15940;48.734;9.112;2023-06-22T01:30:53;96623.81;;;19.45;85.08
9525;BME280;15940;48.734;9.112;2023-06-22T01:33:31;96619.97;;;19.48;84.97
9525;BME280;15940;48.734;9.112;2023-06-22T01:36:01;96608.06;;;19.46;84.96
9525;BME280;15940;48.734;9.112;2023-06-22T01:38:29;96606.03;;;19.46;84.93
9525;BME280;15940;48.734;9.112;2023-06-22T01:40:57;96609.50;;;19.39;84.83
9525;BME280;15940;48.734;9.112;2023-06-22T01:43:27;96606.75;;;19.39;84.98
9525;BME280;15940;48.734;9.112;2023-06-22T01:46:01;96609.84;;;19.35;84.99
9525;BME280;15940;48.734;9.112;2023-06-22T01:48:28;96602.31;;;19.28;85.13
9525;BME280;15940;48.734;9.112;2023-06-22T01:50:55;96611.44;;;19.23;85.20
9525;BME280;15940;48.734;9.112;2023-06-22T01:53:23;96618.22;;;19.22;85.65
9525;BME280;15940;48.734;9.112;2023-06-22T01:55:50;96625.72;;;19.22;85.47
9525;BME280;15940;48.734;9.112;2023-06-22T01:58:17;96624.44;;;19.23;85.62
9525;BME280;15940;48.734;9.112;2023-06-22T02:00:56;96624.06;;;19.19;85.55
9525;BME280;15940;48.734;9.112;2023-06-22T02:03:41;96634.31;;;19.18;85.93
9525;BME280;15940;48.734;9.112;2023-06-22T02:06:16;96629.38;;;19.17;85.98
9525;BME280;15940;48.734;9.112;2023-06-22T02:08:49;96626.06;;;19.18;86.14
9525;BME280;15940;48.734;9.112;2023-06-22T02:11:18;96622.78;;;19.20;86.04
9525;BME280;15940;48.734;9.112;2023-06-22T02:13:47;96637.59;;;19.17;85.71
9525;BME280;15940;48.734;9.112;2023-06-22T02:16:15;96633.19;;;19.13;85.89
9525;BME280;15940;48.734;9.112;2023-06-22T02:18:48;96628.25;;;19.12;86.45
9525;BME280;15940;48.734;9.112;2023-06-22T02:21:19;96635.41;;;19.15;86.19
9525;BME280;15940;48.734;9.112;2023-06-22T02:23:46;96624.63;;;19.17;86.20
9525;BME280;15940;48.734;9.112;2023-06-22T02:26:17;96616.91;;;19.16;85.94
9525;BME280;15940;48.734;9.112;2023-06-22T02:28:44;96623.69;;;19.15;85.93
9525;BME280;15940;48.734;9.112;2023-06-22T02:31:58;96631.53;;;19.10;85.71
9525;BME280;15940;48.734;9.112;2023-06-22T02:34:26;96610.66;;;19.07;85.88
9525;BME280;15940;48.734;9.112;2023-06-22T02:36:53;96602.41;;;19.07;86.15
9525;BME280;15940;48.734;9.112;2023-06-22T02:39:23;96604.78;;;19.03;86.29
9525;BME280;15940;48.734;9.112;2023-06-22T02:41:53;96607.13;;;18.99;86.21
9525;BME280;15940;48.734;9.112;2023-06-22T02:44:22;96597.78;;;18.95;86.41
9525;BME280;15940;48.734;9.112;2023-06-22T02:46:52;96595.19;;;18.89;86.75
9525;BME280;15940;48.734;9.112;2023-06-22T02:49:20;96600.13;;;18.91;87.26
9525;BME280;15940;48.734;9.112;2023-06-22T02:51:49;96592.44;;;18.89;87.19
9525;BME280;15940;48.734;9.112;2023-06-22T02:54:16;96595.19;;;18.89;87.30
9525;BME280;15940;48.734;9.112;2023-06-22T02:56:43;96585.09;;;18.84;87.28
9525;BME280;15940;48.734;9.112;2023-06-22T02:59:32;96577.94;;;18.81;87.46
9525;BME280;15940;48.734;9.112;2023-06-22T03:01:58;96585.41;;;18.73;87.56
9525;BME280;15940;48.734;9.112;2023-06-22T03:04:25;96584.84;;;18.67;87.88
9525;BME280;15940;48.734;9.112;2023-06-22T03:06:54;96583.34;;;18.66;88.13
9525;BME280;15940;48.734;9.112;2023-06-22T03:09:21;96576.41;;;18.65;88.26
9525;BME280;15940;48.734;9.112;2023-06-22T03:11:48;96580.38;;;18.64;88.26
9525;BME280;15940;48.734;9.112;2023-06-22T03:14:15;96576.31;;;18.57;88.49
9525;BME280;15940;48.734;9.112;2023-06-22T03:16:42;96575.94;;;18.53;88.50
9525;BME280;15940;48.734;9.112;2023-06-22T03:19:09;96582.50;;;18.50;88.87
9525;BME280;15940;48.734;9.112;2023-06-22T03:21:38;96578.44;;;18.43;89.06
9525;BME280;15940;48.734;9.112;2023-06-22T03:24:07;96587.94;;;18.42;89.36
9525;BME280;15940;48.734;9.112;2023-06-22T03:26:34;96584.13;;;18.45;89.60
9525;BME280;15940;48.734;9.112;2023-06-22T03:29:02;96587.59;;;18.46;89.75
9525;BME280;15940;48.734;9.112;2023-06-22T03:31:29;96581.91;;;18.44;89.78
9525;BME280;15940;48.734;9.112;2023-06-22T03:33:56;96584.31;;;18.47;89.71
9525;BME280;15940;48.734;9.112;2023-06-22T03:36:23;96579.16;;;18.44;89.99
9525;BME280;15940;48.734;9.112;2023-06-22T03:38:51;96583.72;;;18.41;90.01
9525;BME280;15940;48.734;9.112;2023-06-22T03:41:21;96583.38;;;18.45;90.30
9525;BME280;15940;48.734;9.112;2023-06-22T03:43:52;96579.34;;;18.46;90.13
9525;BME280;15940;48.734;9.112;2023-06-22T03:46:19;96563.44;;;18.44;90.07
9525;BME280;15940;48.734;9.112;2023-06-22T03:48:46;96568.38;;;18.46;90.51
9525;BME280;15940;48.734;9.112;2023-06-22T03:51:13;96566.72;;;18.43;89.98
9525;BME280;15940;48.734;9.112;2023-06-22T03:53:40;96569.13;;;18.46;90.41
9525;BME280;15940;48.734;9.112;2023-06-22T03:56:07;96574.41;;;18.44;90.34
9525;BME280;15940;48.734;9.112;2023-06-22T03:58:38;96570.59;;;18.47;90.41
9525;BME280;15940;48.734;9.112;2023-06-22T04:01:08;96568.78;;;18.50;90.52
9525;BME280;15940;48.734;9.112;2023-06-22T04:03:38;96561.31;;;18.50;90.74
9525;BME280;15940;48.734;9.112;2023-06-22T04:06:05;96569.91;;;18.54;90.41
9525;BME280;15940;48.734;9.112;2023-06-22T04:08:32;96569.91;;;18.54;90.48
9525;BME280;15940;48.734;9.112;2023-06-22T04:10:59;96565.75;;;18.61;90.32
9525;BME280;15940;48.734;9.112;2023-06-22T04:13:30;96561.19;;;18.64;90.20
9525;BME280;15940;48.734;9.112;2023-06-22T04:16:00;96560.44;;;18.63;90.24
9525;BME280;15940;48.734;9.112;2023-06-22T04:18:28;96558.13;;;18.67;90.28
9525;BME280;15940;48.734;9.112;2023-06-22T04:21:01;96559.97;;;18.72;90.35
9525;BME280;15940;48.734;9.112;2023-06-22T04:23:28;96558.16;;;18.75;90.00
9525;BME280;15940;48.734;9.112;2023-06-22T04:25:55;96555.09;;;18.78;89.97
9525;BME280;15940;48.734;9.112;2023-06-22T04:28:31;96551.97;;;18.82;90.01
9525;BME280;15940;48.734;9.112;2023-06-22T04:31:02;96553.13;;;18.87;89.81
9525;BME280;15940;48.734;9.112;2023-06-22T04:33:32;96550.38;;;18.87;89.81
9525;BME280;15940;48.734;9.112;2023-06-22T04:36:00;96549.81;;;18.88;89.66
9525;BME280;15940;48.734;9.112;2023-06-22T04:38:27;96546.16;;;18.93;89.55
9525;BME280;15940;48.734;9.112;2023-06-22T04:40:54;96547.47;;;19.00;89.39
9525;BME280;15940;48.734;9.112;2023-06-22T04:43:21;96541.63;;;19.03;88.95
9525;BME280;15940;48.734;9.112;2023-06-22T04:45:48;96538.38;;;19.05;89.10
9525;BME280;15940;48.734;9.112;2023-06-22T04:48:19;96530.84;;;19.05;88.73
9525;BME280;15940;48.734;9.112;2023-06-22T04:50:46;96533.41;;;19.11;88.83
9525;BME280;15940;48.734;9.112;2023-06-22T04:53:13;96533.28;;;19.17;88.73
9525;BME280;15940;48.734;9.112;2023-06-22T04:55:41;96530.16;;;19.20;88.58
9525;BME280;15940;48.734;9.112;2023-06-22T04:58:11;96523.78;;;19.25;88.51
9525;BME280;15940;48.734;9.112;2023-06-22T05:00:44;96531.28;;;19.32;88.56
9525;BME280;15940;48.734;9.112;2023-06-22T05:03:12;96526.53;;;19.40;87.91
9525;BME280;15940;48.734;9.112;2023-06-22T05:05:42;96533.16;;;19.45;87.58
9525;BME280;15940;48.734;9.112;2023-06-22T05:08:09;96521.78;;;19.49;87.23
9525;BME280;15940;48.734;9.112;2023-06-22T05:10:37;96535.38;;;19.54;86.90
9525;BME280;15940;48.734;9.112;2023-06-22T05:13:04;96532.44;;;19.60;86.67
9525;BME280;15940;48.734;9.112;2023-06-22T05:15:31;96527.16;;;19.62;86.30
9525;BME280;15940;48.734;9.112;2023-06-22T05:18:03;96528.44;;;19.68;86.65
9525;BME280;15940;48.734;9.112;2023-06-22T05:20:44;96512.50;;;19.75;86.34
9525;BME280;15940;48.734;9.112;2023-06-22T05:23:12;96522.41;;;19.85;86.02
9525;BME280;15940;48.734;9.112;2023-06-22T05:25:40;96527.53;;;19.96;85.52
9525;BME280;15940;48.734;9.112;2023-06-22T05:28:07;96518.72;;;20.06;85.43
9525;BME280;15940;48.734;9.112;2023-06-22T05:30:42;96509.00;;;20.12;84.50
9525;BME280;15940;48.734;9.112;2023-06-22T05:33:08;96498.00;;;20.20;84.42
9525;BME280;15940;48.734;9.112;2023-06-22T05:35:37;96499.25;;;20.26;84.13
9525;BME280;15940;48.734;9.112;2023-06-22T05:38:05;96504.91;;;20.36;83.74
9525;BME280;15940;48.734;9.112;2023-06-22T05:40:34;96511.91;;;20.45;82.79
9525;BME280;15940;48.734;9.112;2023-06-22T05:43:03;96506.38;;;20.52;81.91
9525;BME280;15940;48.734;9.112;2023-06-22T05:45:33;96500.88;;;20.52;81.44
9525;BME280;15940;48.734;9.112;2023-06-22T05:48:10;96511.84;;;20.68;81.25
9525;BME280;15940;48.734;9.112;2023-06-22T05:50:39;96506.84;;;20.74;81.06
9525;BME280;15940;48.734;9.112;2023-06-22T05:53:15;96514.03;;;20.77;81.00
9525;BME280;15940;48.734;9.112;2023-06-22T05:55:43;96513.63;;;20.80;81.06
9525;BME280;15940;48.734;9.112;2023-06-22T05:58:10;96513.06;;;20.82;80.50
9525;BME280;15940;48.734;9.112;2023-06-22T06:00:41;96506.13;;;20.73;80.25
9525;BME280;15940;48.734;9.112;2023-06-22T06:03:09;96508.88;;;20.73;80.48
9525;BME280;15940;48.734;9.112;2023-06-22T06:05:50;96504.09;;;20.74;80.52
9525;BME280;15940;48.734;9.112;2023-06-22T06:08:18;96507.25;;;20.70;79.96
9525;BME280;15940;48.734;9.112;2023-06-22T06:10:49;96501.34;;;20.74;79.60
9525;BME280;15940;48.734;9.112;2023-06-22T06:13:20;96499.53;;;20.76;79.80
9525;BME280;15940;48.734;9.112;2023-06-22T06:15:47;96501.50;;;20.83;80.34
9525;BME280;15940;48.734;9.112;2023-06-22T06:18:18;96490.63;;;20.93;80.09
9525;BME280;15940;48.734;9.112;2023-06-22T06:20:45;96498.47;;;21.04;80.37
9525;BME280;15940;48.734;9.112;2023-06-22T06:23:13;96493.84;;;21.15;79.76
9525;BME280;15940;48.734;9.112;2023-06-22T06:25:41;96497.66;;;21.27;78.33
9525;BME280;15940;48.734;9.112;2023-06-22T06:28:08;96490.41;;;21.39;78.52
9525;BME280;15940;48.734;9.112;2023-06-22T06:30:36;96496.94;;;21.51;77.55
9525;BME280;15940;48.734;9.112;2023-06-22T06:33:03;96497.22;;;21.63;77.64
9525;BME280;15940;48.734;9.112;2023-06-22T06:35:34;96501.56;;;21.74;77.50
9525;BME280;15940;48.734;9.112;2023-06-22T06:38:03;96494.53;;;21.80;75.88
9525;BME280;15940;48.734;9.112;2023-06-22T06:40:30;96500.88;;;21.90;76.29
9525;BME280;15940;48.734;9.112;2023-06-22T06:43:01;96509.97;;;22.01;75.94
9525;BME280;15940;48.734;9.112;2023-06-22T06:45:29;96513.78;;;22.05;74.92
9525;BME280;15940;48.734;9.112;2023-06-22T06:47:58;96506.88;;;22.21;74.76
9525;BME280;15940;48.734;9.112;2023-06-22T06:50:25;96499.00;;;22.35;73.86
9525;BME280;15940;48.734;9.112;2023-06-22T06:52:53;96506.78;;;22.64;72.91
9525;BME280;15940;48.734;9.112;2023-06-22T06:55:22;96498.19;;;22.77;69.15
9525;BME280;15940;48.734;9.112;2023-06-22T06:57:51;96504.31;;;23.02;70.34
9525;BME280;15940;48.734;9.112;2023-06-22T07:00:20;96503.31;;;23.25;69.22
9525;BME280;15940;48.734;9.112;2023-06-22T07:02:47;96502.25;;;23.47;68.02
9525;BME280;15940;48.734;9.112;2023-06-22T07:05:14;96492.28;;;23.61;68.27
9525;BME280;15940;48.734;9.112;2023-06-22T07:07:43;96490.03;;;23.87;66.82
9525;BME280;15940;48.734;9.112;2023-06-22T07:10:10;96484.69;;;23.99;65.54
9525;BME280;15940;48.734;9.112;2023-06-22T07:12:39;96486.88;;;24.10;66.62
9525;BME280;15940;48.734;9.112;2023-06-22T07:15:09;96482.81;;;24.20;65.38
9525;BME280;15940;48.734;9.112;2023-06-22T07:17:39;96485.06;;;24.41;65.99
9525;BME280;15940;48.734;9.112;2023-06-22T07:20:08;96483.00;;;24.52;63.60
9525;BME280;15940;48.734;9.112;2023-06-22T07:22:38;96477.31;;;24.69;63.96
9525;BME280;15940;48.734;9.112;2023-06-22T07:25:07;96471.03;;;24.78;64.48
9525;BME280;15940;48.734;9.112;2023-06-22T07:27:44;96473.22;;;24.89;64.70
9525;BME280;15940;48.734;9.112;2023-06-22T07:30:12;96469.84;;;25.10;62.75
9525;BME280;15940;48.734;9.112;2023-06-22T07:32:41;96453.88;;;25.30;63.30
9525;BME280;15940;48.734;9.112;2023-06-22T07:35:09;96451.03;;;25.49;62.56
9525;BME280;15940;48.734;9.112;2023-06-22T07:37:36;96444.09;;;25.70;59.96
9525;BME280;15940;48.734;9.112;2023-06-22T07:40:05;96434.84;;;25.77;59.57
9525;BME280;15940;48.734;9.112;2023-06-22T07:42:33;96437.66;;;25.67;59.06
9525;BME280;15940;48.734;9.112;2023-06-22T07:45:02;96425.22;;;25.78;59.39
9525;BME280;15940;48.734;9.112;2023-06-22T07:47:30;96429.66;;;25.92;60.20
9525;BME280;15940;48.734;9.112;2023-06-22T07:50:03;96417.88;;;26.04;58.49
9525;BME280;15940;48.734;9.112;2023-06-22T07:52:31;96420.59;;;26.13;56.87
9525;BME280;15940;48.734;9.112;2023-06-22T07:54:58;96417.50;;;26.19;58.01
9525;BME280;15940;48.734;9.112;2023-06-22T07:57:26;96418.47;;;26.24;56.74
9525;BME280;15940;48.734;9.112;2023-06-22T07:59:59;96425.81;;;26.40;58.47
9525;BME280;15940;48.734;9.112;2023-06-22T08:02:26;96436.22;;;26.52;57.61
9525;BME280;15940;48.734;9.112;2023-06-22T08:04:53;96436.88;;;26.62;55.80
9525;BME280;15940;48.734;9.112;2023-06-22T08:07:22;96450.47;;;26.79;56.33
9525;BME280;15940;48.734;9.112;2023-06-22T08:09:54;96462.75;;;26.64;55.50
9525;BME280;15940;48.734;9.112;2023-06-22T08:12:23;96468.75;;;26.82;56.05
9525;BME280;15940;48.734;9.112;2023-06-22T08:14:50;96469.31;;;26.81;54.87
9525;BME280;15940;48.734;9.112;2023-06-22T08:17:17;96470.53;;;26.77;55.82
9525;BME280;15940;48.734;9.112;2023-06-22T08:19:45;96471.69;;;26.63;55.53
9525;BME280;15940;48.734;9.112;2023-06-22T08:22:12;96479.44;;;26.43;55.47
9525;BME280;15940;48.734;9.112;2023-06-22T08:24:42;96486.47;;;26.44;55.76
9525;BME280;15940;48.734;9.112;2023-06-22T08:27:11;96491.31;;;26.34;55.92
9525;BME280;15940;48.734;9.112;2023-06-22T08:29:42;96497.41;;;26.20;55.85
9525;BME280;15940;48.734;9.112;2023-06-22T08:32:11;96488.22;;;26.18;56.91
9525;BME280;15940;48.734;9.112;2023-06-22T08:34:38;96495.97;;;26.41;55.32
9525;BME280;15940;48.734;9.112;2023-06-22T08:37:07;96509.97;;;26.43;57.11
9525;BME280;15940;48.734;9.112;2023-06-22T08:39:34;96500.94;;;26.42;56.91
9525;BME280;15940;48.734;9.112;2023-06-22T08:42:04;96485.59;;;26.41;57.58
9525;BME280;15940;48.734;9.112;2023-06-22T08:44:31;96483.34;;;26.50;55.28
9525;BME280;15940;48.734;9.112;2023-06-22T08:46:58;96481.47;;;26.42;56.01
9525;BME280;15940;48.734;9.112;2023-06-22T08:49:25;96481.25;;;26.38;55.90
9525;BME280;15940;48.734;9.112;2023-06-22T08:51:52;96471.97;;;26.45;54.79
9525;BME280;15940;48.734;9.112;2023-06-22T08:54:28;96475.59;;;26.48;56.24
9525;BME280;15940;48.734;9.112;2023-06-22T08:56:55;96476.56;;;26.53;56.60
9525;BME280;15940;48.734;9.112;2023-06-22T08:59:23;96480.06;;;26.53;56.83
9525;BME280;15940;48.734;9.112;2023-06-22T09:01:50;96475.13;;;26.52;56.65
9525;BME280;15940;48.734;9.112;2023-06-22T09:04:17;96481.38;;;26.40;57.17
9525;BME280;15940;48.734;9.112;2023-06-22T09:06:44;96465.03;;;26.35;58.22
9525;BME280;15940;48.734;9.112;2023-06-22T09:09:13;96450.34;;;26.44;57.14
9525;BME280;15940;48.734;9.112;2023-06-22T09:11:43;96471.59;;;26.72;57.40
9525;BME280;15940;48.734;9.112;2023-06-22T09:14:12;96479.22;;;27.17;55.90
9525;BME280;15940;48.734;9.112;2023-06-22T09:16:41;96491.03;;;27.74;55.53
9525;BME280;15940;48.734;9.112;2023-06-22T09:19:08;96484.19;;;28.24;52.69
9525;BME280;15940;48.734;9.112;2023-06-22T09:21:41;96473.38;;;28.53;52.36
9525;BME280;15940;48.734;9.112;2023-06-22T09:24:08;96471.91;;;28.78;51.93
9525;BME280;15940;48.734;9.112;2023-06-22T09:26:35;96473.09;;;29.12;51.03
9525;BME280;15940;48.734;9.112;2023-06-22T09:29:06;96459.41;;;29.29;50.83
9525;BME280;15940;48.734;9.112;2023-06-22T09:31:36;96447.72;;;29.33;49.81
9525;BME280;15940;48.734;9.112;2023-06-22T09:34:08;96442.78;;;29.32;49.39
9525;BME280;15940;48.734;9.112;2023-06-22T09:36:35;96452.25;;;29.26;49.60
9525;BME280;15940;48.734;9.112;2023-06-22T09:39:02;96444.84;;;29.31;50.55
9525;BME280;15940;48.734;9.112;2023-06-22T09:41:32;96445.50;;;29.71;50.48
9525;BME280;15940;48.734;9.112;2023-06-22T09:43:59;96441.81;;;29.66;50.14
9525;BME280;15940;48.734;9.112;2023-06-22T09:46:29;96429.38;;;29.55;50.19
9525;BME280;15940;48.734;9.112;2023-06-22T09:48:56;96424.81;;;29.90;51.30
9525;BME280;15940;48.734;9.112;2023-06-22T09:51:26;96423.78;;;29.97;50.38
9525;BME280;15940;48.734;9.112;2023-06-22T09:53:53;96411.56;;;30.18;49.57
9525;BME280;15940;48.734;9.112;2023-06-22T09:56:20;96404.28;;;30.26;49.47
9525;BME280;15940;48.734;9.112;2023-06-22T09:58:48;96403.34;;;30.22;50.42
9525;BME280;15940;48.734;9.112;2023-06-22T10:01:18;96394.16;;;30.19;49.06
9525;BME280;15940;48.734;9.112;2023-06-22T10:03:46;96402.63;;;30.35;49.68
9525;BME280;15940;48.734;9.112;2023-06-22T10:06:13;96406.28;;;30.10;48.86
9525;BME280;15940;48.734;9.112;2023-06-22T10:08:42;96396.59;;;29.83;50.40
9525;BME280;15940;48.734;9.112;2023-06-22T10:11:09;96398.06;;;29.57;50.93
9525;BME280;15940;48.734;9.112;2023-06-22T10:13:36;96391.59;;;29.27;51.43
9525;BME280;15940;48.734;9.112;2023-06-22T10:16:03;96390.34;;;29.16;52.51
9525;BME280;15940;48.734;9.112;2023-06-22T10:18:31;96394.91;;;29.10;50.78
9525;BME280;15940;48.734;9.112;2023-06-22T10:21:00;96381.78;;;29.26;51.19
9525;BME280;15940;48.734;9.112;2023-06-22T10:23:27;96377.03;;;29.42;51.14
9525;BME280;15940;48.734;9.112;2023-06-22T10:25:58;96381.72;;;29.38;51.13
9525;BME280;15940;48.734;9.112;2023-06-22T10:28:29;96379.75;;;29.40;50.42
9525;BME280;15940;48.734;9.112;2023-06-22T10:30:57;96378.31;;;29.67;50.91
9525;BME280;15940;48.734;9.112;2023-06-22T10:33:25;96373.84;;;29.75;49.09
9525;BME280;15940;48.734;9.112;2023-06-22T10:35:55;96372.34;;;30.02;50.86
9525;BME280;15940;48.734;9.112;2023-06-22T10:38:26;96366.78;;;30.31;50.17
9525;BME280;15940;48.734;9.112;2023-06-22T10:40:56;96364.28;;;30.37;48.58
9525;BME280;15940;48.734;9.112;2023-06-22T10:43:23;96355.75;;;30.49;49.10
9525;BME280;15940;48.734;9.112;2023-06-22T10:45:53;96357.00;;;30.76;49.25
9525;BME280;15940;48.734;9.112;2023-06-22T10:48:20;96368.28;;;30.78;48.17
9525;BME280;15940;48.734;9.112;2023-06-22T10:50:52;96369.44;;;30.73;47.05
9525;BME280;15940;48.734;9.112;2023-06-22T10:53:28;96365.25;;;30.58;47.03
9525;BME280;15940;48.734;9.112;2023-06-22T10:55:54;96367.28;;;30.41;48.38
9525;BME280;15940;48.734;9.112;2023-06-22T10:58:23;96366.44;;;30.23;47.81
9525;BME280;15940;48.734;9.112;2023-06-22T11:00:50;96365.66;;;30.07;48.50
9525;BME280;15940;48.734;9.112;2023-06-22T11:03:18;96359.00;;;30.00;48.13
9525;BME280;15940;48.734;9.112;2023-06-22T11:05:46;96355.31;;;29.96;49.13
9525;BME280;15940;48.734;9.112;2023-06-22T11:08:14;96356.03;;;29.82;47.85
9525;BME280;15940;48.734;9.112;2023-06-22T11:10:44;96367.34;;;29.71;50.12
9525;BME280;15940;48.734;9.112;2023-06-22T11:13:18;96361.94;;;29.75;49.92
9525;BME280;15940;48.734;9.112;2023-06-22T11:15:49;96371.88;;;29.64;50.46
9525;BME280;15940;48.734;9.112;2023-06-22T11:18:16;96367.56;;;29.47;52.14
9525;BME280;15940;48.734;9.112;2023-06-22T11:20:43;96370.94;;;29.46;52.15
9525;BME280;15940;48.734;9.112;2023-06-22T11:23:10;96366.59;;;29.43;52.39
9525;BME280;15940;48.734;9.112;2023-06-22T11:25:40;96358.44;;;29.33;51.86
9525;BME280;15940;48.734;9.112;2023-06-22T11:28:11;96354.72;;;29.28;51.22
9525;BME280;15940;48.734;9.112;2023-06-22T11:30:38;96364.75;;;29.34;51.67
9525;BME280;15940;48.734;9.112;2023-06-22T11:33:08;96352.38;;;29.50;51.50
9525;BME280;15940;48.734;9.112;2023-06-22T11:35:35;96365.91;;;29.70;50.52
9525;BME280;15940;48.734;9.112;2023-06-22T11:38:02;96346.72;;;29.92;50.69
9525;BME280;15940;48.734;9.112;2023-06-22T11:40:30;96340.59;;;30.09;49.95
9525;BME280;15940;48.734;9.112;2023-06-22T11:42:57;96346.88;;;30.23;51.14
9525;BME280;15940;48.734;9.112;2023-06-22T11:45:30;96343.28;;;30.36;49.84
9525;BME280;15940;48.734;9.112;2023-06-22T11:47:57;96344.31;;;30.43;49.59
9525;BME280;15940;48.734;9.112;2023-06-22T11:50:28;96340.31;;;30.32;49.25
9525;BME280;15940;48.734;9.112;2023-06-22T11:53:03;96337.84;;;30.25;48.50
9525;BME280;15940;48.734;9.112;2023-06-22T11:55:30;96344.03;;;30.07;49.92
9525;BME280;15940;48.734;9.112;2023-06-22T11:57:58;96345.34;;;30.06;50.47
9525;BME280;15940;48.734;9.112;2023-06-22T12:00:30;96361.22;;;29.88;49.86
9525;BME280;15940;48.734;9.112;2023-06-22T12:03:00;96366.72;;;29.86;51.07
9525;BME280;15940;48.734;9.112;2023-06-22T12:05:29;96372.28;;;29.86;51.87
9525;BME280;15940;48.734;9.112;2023-06-22T12:07:56;96366.31;;;29.78;50.04
9525;BME280;15940;48.734;9.112;2023-06-22T12:10:26;96360.31;;;29.70;52.00
9525;BME280;15940;48.734;9.112;2023-06-22T12:12:54;96345.75;;;29.57;52.18
9525;BME280;15940;48.734;9.112;2023-06-22T12:15:21;96347.41;;;29.49;51.63
9525;BME280;15940;48.734;9.112;2023-06-22T12:17:48;96343.56;;;29.56;51.64
9525;BME280;15940;48.734;9.112;2023-06-22T12:20:15;96346.25;;;29.68;50.77
9525;BME280;15940;48.734;9.112;2023-06-22T12:22:58;96348.44;;;29.69;49.92
9525;BME280;15940;48.734;9.112;2023-06-22T12:25:25;96348.44;;;29.69;50.57
9525;BME280;15940;48.734;9.112;2023-06-22T12:27:52;96350.50;;;29.69;50.87
9525;BME280;15940;48.734;9.112;2023-06-22T12:30:19;96356.28;;;29.59;51.29
9525;BME280;15940;48.734;9.112;2023-06-22T12:32:46;96363.28;;;29.46;51.50
9525;BME280;15940;48.734;9.112;2023-06-22T12:35:13;96375.28;;;29.35;51.35
9525;BME280;15940;48.734;9.112;2023-06-22T12:37:41;96374.66;;;29.23;51.21
9525;BME280;15940;48.734;9.112;2023-06-22T12:40:12;96373.63;;;29.16;52.01
9525;BME280;15940;48.734;9.112;2023-06-22T12:42:39;96372.47;;;29.08;52.31
9525;BME280;15940;48.734;9.112;2023-06-22T12:45:09;96383.03;;;29.09;52.73
9525;BME280;15940;48.734;9.112;2023-06-22T12:47:37;96385.81;;;29.09;52.31
9525;BME280;15940;48.734;9.112;2023-06-22T12:50:06;96392.50;;;29.04;52.88
9525;BME280;15940;48.734;9.112;2023-06-22T12:52:33;96393.13;;;29.02;53.31
9525;BME280;15940;48.734;9.112;2023-06-22T12:55:06;96410.16;;;28.95;53.14
9525;BME280;15940;48.734;9.112;2023-06-22T12:57:37;96402.16;;;28.89;53.94
9525;BME280;15940;48.734;9.112;2023-06-22T13:00:06;96405.72;;;28.78;53.95
9525;BME280;15940;48.734;9.112;2023-06-22T13:02:38;96402.75;;;28.74;54.56
9525;BME280;15940;48.734;9.112;2023-06-22T13:05:06;96389.63;;;28.77;54.25
9525;BME280;15940;48.734;9.112;2023-06-22T13:08:30;96380.09;;;28.68;55.63
9525;BME280;15940;48.734;9.112;2023-06-22T13:10:58;96376.50;;;28.65;54.49
9525;BME280;15940;48.734;9.112;2023-06-22T13:13:27;96367.69;;;28.57;54.12
9525;BME280;15940;48.734;9.112;2023-06-22T13:15:54;96363.44;;;28.56;54.25
9525;BME280;15940;48.734;9.112;2023-06-22T13:18:21;96354.81;;;28.64;54.56
9525;BME280;15940;48.734;9.112;2023-06-22T13:20:48;96352.75;;;28.78;54.39
9525;BME280;15940;48.734;9.112;2023-06-22T13:23:15;96342.50;;;28.94;53.91
9525;BME280;15940;48.734;9.112;2023-06-22T13:25:42;96343.13;;;29.07;53.26